sensor_id;sensor_type;location;lat;lon;timestamp;temperature;humidity
7936;DHT22;4013;49.744;8.118;2024-03-08T05:32:35;1.80;99.90
7936;DHT22;4013;49.744;8.118;2024-03-08T05:35:03;1.70;99.90
7936;DHT22;4013;49.744;8.118;2024-03-08T05:37:32;1.80;99.90
7936;DHT22;4013;49.744;8.118;2024-03-08T05:39:59;1.70;99.90
7936;DHT22;4013;49.744;8.118;2024-03-08T05:42:26;1.60;99.90
7936;DHT22;4013;49.744;8.118;2024-03-08T05:44:54;1.60;99.90
7936;DHT22;4013;49.744;8.118;2024-03-08T05:47:24;1.60;99.90
7936;DHT22;4013;49.744;8.118;2024-03-08T05:49:52;1.60;99.90
7936;DHT22;4013;49.744;8.118;2024-03-08T05:52:20;1.50;99.90
7936;DHT22;4013;49.744;8.118;2024-03-08T05:54:47;1.60;99.90
7936;DHT22;4013;49.744;8.118;2024-03-08T05:57:14;1.50;99.90
7936;DHT22;4013;49.744;8.118;2024-03-08T05:59:41;1.50;99.90
7936;DHT22;4013;49.744;8.118;2024-03-08T06:02:07;1.50;99.90
7936;DHT22;4013;49.744;8.118;2024-03-08T06:04:34;1.60;99.90
7936;DHT22;4013;49.744;8.118;2024-03-08T06:07:03;1.50;99.90
7936;DHT22;4013;49.744;8.118;2024-03-08T06:09:29;1.50;99.90
7936;DHT22;4013;49.744;8.118;2024-03-08T06:11:56;1.60;99.90
7936;DHT22;4013;49.744;8.118;2024-03-08T06:14:23;1.50;99.90
7936;DHT22;4013;49.744;8.118;2024-03-08T06:16:51;1.60;99.90
7936;DHT22;4013;49.744;8.118;2024-03-08T06:19:18;1.50;99.90
7936;DHT22;4013;49.744;8.118;2024-03-08T06:21:45;1.50;99.90
7936;DHT22;4013;49.744;8.118;2024-03-08T06:24:13;1.60;99.90
7936;DHT22;4013;49.744;8.118;2024-03-08T06:26:41;1.60;99.90
7936;DHT22;4013;49.744;8.118;2024-03-08T06:29:08;1.60;99.90
7936;DHT22;4013;49.744;8.118;2024-03-08T06:31:35;1.60;99.90
7936;DHT22;4013;49.744;8.118;2024-03-08T06:34:04;1.70;99.90
7936;DHT22;4013;49.744;8.118;2024-03-08T06:36:33;1.70;99.90
7936;DHT22;4013;49.744;8.118;2024-03-08T06:39:01;1.70;99.90
7936;DHT22;4013;49.744;8.118;2024-03-08T06:41:36;1.70;99.90
7936;DHT22;4013;49.744;8.118;2024-03-08T06:44:03;1.70;99.90
7936;DHT22;4013;49.744;8.118;2024-03-08T06:46:31;1.80;99.90
7936;DHT22;4013;49.744;8.118;2024-03-08T06:49:01;2.00;99.90
7936;DHT22;4013;49.744;8.118;2024-03-08T06:51:28;1.90;99.90
7936;DHT22;4013;49.744;8.118;2024-03-08T06:53:56;2.00;99.90
7936;DHT22;4013;49.744;8.118;2024-03-08T06:56:23;2.10;99.90
7936;DHT22;4013;49.744;8.118;2024-03-08T06:58:52;2.00;99.90
7936;DHT22;4013;49.744;8.118;2024-03-08T07:01:20;2.00;99.90
7936;DHT22;4013;49.744;8.118;2024-03-08T07:03:47;2.10;99.90
7936;DHT22;4013;49.744;8.118;2024-03-08T07:06:14;2.20;99.90
7936;DHT22;4013;49.744;8.118;2024-03-08T07:08:42;2.30;99.90
7936;DHT22;4013;49.744;8.118;2024-03-08T07:11:11;2.20;99.90
7936;DHT22;4013;49.744;8.118;2024-03-08T07:13:41;2.30;99.90
7936;DHT22;4013;49.744;8.118;2024-03-08T07:16:09;2.30;99.90
7936;DHT22;4013;49.744;8.118;2024-03-08T07:18:37;2.30;99.90
7936;DHT22;4013;49.744;8.118;2024-03-08T07:21:05;2.40;99.90
7936;DHT22;4013;49.744;8.118;2024-03-08T07:23:32;2.40;99.90
7936;DHT22;4013;49.744;8.118;2024-03-08T07:26:35;2.60;99.90
7936;DHT22;4013;49.744;8.118;2024-03-08T07:29:02;2.70;99.90
7936;DHT22;4013;49.744;8.118;2024-03-08T07:31:34;2.70;99.90
7936;DHT22;4013;49.744;8.118;2024-03-08T07:34:16;2.80;99.90
7936;DHT22;4013;49.744;8.118;2024-03-08T07:36:43;2.90;99.90
7936;DHT22;4013;49.744;8.118;2024-03-08T07:39:10;2.90;99.90
7936;DHT22;4013;49.744;8.118;2024-03-08T07:41:39;2.90;99.90
7936;DHT22;4013;49.744;8.118;2024-03-08T07:44:07;2.90;99.90
7936;DHT22;4013;49.744;8.118;2024-03-08T07:46:36;3.00;99.90
7936;DHT22;4013;49.744;8.118;2024-03-08T07:49:04;3.10;99.90
7936;DHT22;4013;49.744;8.118;2024-03-08T07:51:31;3.20;99.90
7936;DHT22;4013;49.744;8.118;2024-03-08T07:54:00;3.20;99.90
7936;DHT22;4013;49.744;8.118;2024-03-08T07:56:27;3.20;99.90
7936;DHT22;4013;49.744;8.118;2024-03-08T07:58:53;3.30;99.90
7936;DHT22;4013;49.744;8.118;2024-03-08T08:01:20;3.40;99.90
7936;DHT22;4013;49.744;8.118;2024-03-08T08:03:49;3.50;99.90
7936;DHT22;4013;49.744;8.118;2024-03-08T08:06:16;3.60;99.90
7936;DHT22;4013;49.744;8.118;2024-03-08T08:08:43;3.70;99.90
7936;DHT22;4013;49.744;8.118;2024-03-08T08:11:10;3.70;99.90
7936;DHT22;4013;49.744;8.118;2024-03-08T08:13:38;3.70;99.90
7936;DHT22;4013;49.744;8.118;2024-03-08T08:16:05;3.80;99.90
7936;DHT22;4013;49.744;8.118;2024-03-08T08:18:33;3.80;99.90
7936;DHT22;4013;49.744;8.118;2024-03-08T08:21:03;3.80;99.90
7936;DHT22;4013;49.744;8.118;2024-03-08T08:23:31;3.80;99.90
7936;DHT22;4013;49.744;8.118;2024-03-08T08:25:59;4.00;99.90
7936;DHT22;4013;49.744;8.118;2024-03-08T08:28:29;4.00;99.90
7936;DHT22;4013;49.744;8.118;2024-03-08T08:30:56;4.00;99.90
7936;DHT22;4013;49.744;8.118;2024-03-08T08:33:25;4.10;99.90
7936;DHT22;4013;49.744;8.118;2024-03-08T08:35:52;4.10;99.90
7936;DHT22;4013;49.744;8.118;2024-03-08T08:38:21;4.10;99.90
7936;DHT22;4013;49.744;8.118;2024-03-08T08:40:48;4.20;99.90
7936;DHT22;4013;49.744;8.118;2024-03-08T08:43:15;4.30;99.90
7936;DHT22;4013;49.744;8.118;2024-03-08T08:45:44;4.40;99.90
7936;DHT22;4013;49.744;8.118;2024-03-08T08:48:12;4.40;99.90
7936;DHT22;4013;49.744;8.118;2024-03-08T08:50:40;4.50;99.90
7936;DHT22;4013;49.744;8.118;2024-03-08T08:53:07;4.60;99.90
7936;DHT22;4013;49.744;8.118;2024-03-08T08:55:35;4.70;99.90
7936;DHT22;4013;49.744;8.118;2024-03-08T08:58:02;4.80;99.90
7936;DHT22;4013;49.744;8.118;2024-03-08T09:00:29;4.80;99.90
7936;DHT22;4013;49.744;8.118;2024-03-08T09:02:58;4.80;99.90
7936;DHT22;4013;49.744;8.118;2024-03-08T09:05:25;4.90;99.90
7936;DHT22;4013;49.744;8.118;2024-03-08T09:07:52;5.00;99.90
7936;DHT22;4013;49.744;8.118;2024-03-08T09:10:20;5.10;99.90
7936;DHT22;4013;49.744;8.118;2024-03-08T09:12:48;5.20;99.90
7936;DHT22;4013;49.744;8.118;2024-03-08T09:15:18;5.30;99.90
7936;DHT22;4013;49.744;8.118;2024-03-08T09:17:46;5.30;99.90
7936;DHT22;4013;49.744;8.118;2024-03-08T09:20:14;5.40;99.90
7936;DHT22;4013;49.744;8.118;2024-03-08T09:22:43;5.40;99.90
7936;DHT22;4013;49.744;8.118;2024-03-08T09:25:11;5.50;99.90
7936;DHT22;4013;49.744;8.118;2024-03-08T09:27:38;5.50;99.90
7936;DHT22;4013;49.744;8.118;2024-03-08T09:30:09;5.60;99.90
7936;DHT22;4013;49.744;8.118;2024-03-08T09:32:38;5.70;99.90
7936;DHT22;4013;49.744;8.118;2024-03-08T09:35:06;5.90;99.90
7936;DHT22;4013;49.744;8.118;2024-03-08T09:37:33;6.00;99.90
7936;DHT22;4013;49.744;8.118;2024-03-08T09:40:00;6.20;99.90
7936;DHT22;4013;49.744;8.118;2024-03-08T09:42:30;6.30;99.90
7936;DHT22;4013;49.744;8.118;2024-03-08T09:44:57;6.50;99.90
7936;DHT22;4013;49.744;8.118;2024-03-08T09:47:28;6.60;99.90
7936;DHT22;4013;49.744;8.118;2024-03-08T09:49:59;6.50;99.90
7936;DHT22;4013;49.744;8.118;2024-03-08T09:52:26;6.50;99.90
7936;DHT22;4013;49.744;8.118;2024-03-08T09:54:56;6.40;99.90
7936;DHT22;4013;49.744;8.118;2024-03-08T09:57:23;6.40;99.90
7936;DHT22;4013;49.744;8.118;2024-03-08T09:59:51;6.40;99.90
7936;DHT22;4013;49.744;8.118;2024-03-08T10:02:18;6.30;99.90
7936;DHT22;4013;49.744;8.118;2024-03-08T10:04:48;6.40;99.90
7936;DHT22;4013;49.744;8.118;2024-03-08T10:07:15;6.40;99.90
7936;DHT22;4013;49.744;8.118;2024-03-08T10:09:41;6.50;99.90
7936;DHT22;4013;49.744;8.118;2024-03-08T10:12:13;6.60;99.90
7936;DHT22;4013;49.744;8.118;2024-03-08T10:14:40;6.80;99.90
7936;DHT22;4013;49.744;8.118;2024-03-08T10:17:08;6.80;99.90
7936;DHT22;4013;49.744;8.118;2024-03-08T10:19:35;6.70;99.90
7936;DHT22;4013;49.744;8.118;2024-03-08T10:22:04;6.80;99.90
7936;DHT22;4013;49.744;8.118;2024-03-08T10:24:32;6.90;99.90
7936;DHT22;4013;49.744;8.118;2024-03-08T10:27:01;7.10;99.90
7936;DHT22;4013;49.744;8.118;2024-03-08T10:29:31;7.10;99.90
7936;DHT22;4013;49.744;8.118;2024-03-08T10:31:58;7.20;99.90
7936;DHT22;4013;49.744;8.118;2024-03-08T10:34:25;7.30;99.90
7936;DHT22;4013;49.744;8.118;2024-03-08T10:36:52;7.40;99.90
7936;DHT22;4013;49.744;8.118;2024-03-08T10:39:24;7.40;99.90
7936;DHT22;4013;49.744;8.118;2024-03-08T10:41:55;7.40;99.90
7936;DHT22;4013;49.744;8.118;2024-03-08T10:44:40;7.50;99.90
7936;DHT22;4013;49.744;8.118;2024-03-08T10:47:12;7.60;99.90
7936;DHT22;4013;49.744;8.118;2024-03-08T10:49:53;7.60;99.90
7936;DHT22;4013;49.744;8.118;2024-03-08T10:52:21;7.70;99.90
7936;DHT22;4013;49.744;8.118;2024-03-08T10:54:51;7.80;99.90
7936;DHT22;4013;49.744;8.118;2024-03-08T10:57:19;7.70;99.90
7936;DHT22;4013;49.744;8.118;2024-03-08T10:59:49;7.70;99.90
7936;DHT22;4013;49.744;8.118;2024-03-08T11:02:19;7.70;99.90
7936;DHT22;4013;49.744;8.118;2024-03-08T11:04:47;7.70;99.90
7936;DHT22;4013;49.744;8.118;2024-03-08T11:07:15;7.60;99.90
7936;DHT22;4013;49.744;8.118;2024-03-08T11:09:47;7.60;99.90
7936;DHT22;4013;49.744;8.118;2024-03-08T11:12:37;7.60;99.90
7936;DHT22;4013;49.744;8.118;2024-03-08T11:15:11;7.70;99.90
7936;DHT22;4013;49.744;8.118;2024-03-08T11:17:46;7.70;99.90
7936;DHT22;4013;49.744;8.118;2024-03-08T11:20:14;7.90;99.90
7936;DHT22;4013;49.744;8.118;2024-03-08T11:22:43;7.90;99.90
7936;DHT22;4013;49.744;8.118;2024-03-08T11:25:35;8.00;99.90
7936;DHT22;4013;49.744;8.118;2024-03-08T11:28:20;8.00;99.90
7936;DHT22;4013;49.744;8.118;2024-03-08T11:31:23;8.00;99.90
7936;DHT22;4013;49.744;8.118;2024-03-08T11:33:51;8.10;99.90
7936;DHT22;4013;49.744;8.118;2024-03-08T11:36:21;8.10;99.90
7936;DHT22;4013;49.744;8.118;2024-03-08T11:38:48;8.10;99.90
7936;DHT22;4013;49.744;8.118;2024-03-08T11:41:18;8.00;99.90
7936;DHT22;4013;49.744;8.118;2024-03-08T11:43:46;7.90;99.90
7936;DHT22;4013;49.744;8.118;2024-03-08T11:46:15;7.90;99.90
7936;DHT22;4013;49.744;8.118;2024-03-08T11:48:43;7.90;99.90
7936;DHT22;4013;49.744;8.118;2024-03-08T11:51:11;7.80;99.90
7936;DHT22;4013;49.744;8.118;2024-03-08T11:53:39;7.90;99.90
7936;DHT22;4013;49.744;8.118;2024-03-08T11:56:08;8.10;99.90
7936;DHT22;4013;49.744;8.118;2024-03-08T11:58:37;8.10;99.90
7936;DHT22;4013;49.744;8.118;2024-03-08T12:01:06;8.20;99.90
7936;DHT22;4013;49.744;8.118;2024-03-08T12:03:35;8.30;99.90
7936;DHT22;4013;49.744;8.118;2024-03-08T12:06:04;8.20;99.90
7936;DHT22;4013;49.744;8.118;2024-03-08T12:08:35;8.20;99.90
7936;DHT22;4013;49.744;8.118;2024-03-08T12:11:04;8.10;99.90
7936;DHT22;4013;49.744;8.118;2024-03-08T12:13:33;8.00;99.90
7936;DHT22;4013;49.744;8.118;2024-03-08T12:16:02;8.00;99.90
7936;DHT22;4013;49.744;8.118;2024-03-08T12:18:36;8.00;99.90
7936;DHT22;4013;49.744;8.118;2024-03-08T12:21:07;8.00;99.90
7936;DHT22;4013;49.744;8.118;2024-03-08T12:23:36;8.20;99.90
7936;DHT22;4013;49.744;8.118;2024-03-08T12:26:11;8.50;99.90
7936;DHT22;4013;49.744;8.118;2024-03-08T12:28:39;8.70;99.90
7936;DHT22;4013;49.744;8.118;2024-03-08T12:31:08;8.70;99.90
7936;DHT22;4013;49.744;8.118;2024-03-08T12:33:48;8.70;99.90
7936;DHT22;4013;49.744;8.118;2024-03-08T12:36:17;8.70;99.90
7936;DHT22;4013;49.744;8.118;2024-03-08T12:38:45;8.70;99.90
7936;DHT22;4013;49.744;8.118;2024-03-08T12:41:14;8.80;99.90
7936;DHT22;4013;49.744;8.118;2024-03-08T12:43:43;8.80;99.90
7936;DHT22;4013;49.744;8.118;2024-03-08T12:46:14;8.70;99.90
7936;DHT22;4013;49.744;8.118;2024-03-08T12:48:42;8.80;99.90
7936;DHT22;4013;49.744;8.118;2024-03-08T12:51:13;8.90;99.90
7936;DHT22;4013;49.744;8.118;2024-03-08T12:53:41;8.80;99.90
7936;DHT22;4013;49.744;8.118;2024-03-08T12:56:09;8.90;99.90
7936;DHT22;4013;49.744;8.118;2024-03-08T12:58:36;9.00;99.90
7936;DHT22;4013;49.744;8.118;2024-03-08T13:01:04;9.00;99.90
7936;DHT22;4013;49.744;8.118;2024-03-08T13:03:33;9.00;99.90
7936;DHT22;4013;49.744;8.118;2024-03-08T13:06:03;8.90;99.90
7936;DHT22;4013;49.744;8.118;2024-03-08T13:08:31;9.00;99.90
7936;DHT22;4013;49.744;8.118;2024-03-08T13:11:01;9.10;99.90
7936;DHT22;4013;49.744;8.118;2024-03-08T13:13:28;9.20;99.90
7936;DHT22;4013;49.744;8.118;2024-03-08T13:15:55;9.30;99.90
7936;DHT22;4013;49.744;8.118;2024-03-08T13:18:25;9.30;99.90
7936;DHT22;4013;49.744;8.118;2024-03-08T13:20:53;9.50;99.90
7936;DHT22;4013;49.744;8.118;2024-03-08T13:23:21;9.70;99.90
7936;DHT22;4013;49.744;8.118;2024-03-08T13:25:48;10.30;99.90
7936;DHT22;4013;49.744;8.118;2024-03-08T13:28:15;11.60;99.90
7936;DHT22;4013;49.744;8.118;2024-03-08T13:30:48;12.40;94.80
7936;DHT22;4013;49.744;8.118;2024-03-08T13:33:16;12.80;94.00
7936;DHT22;4013;49.744;8.118;2024-03-08T13:35:44;13.10;96.70
7936;DHT22;4013;49.744;8.118;2024-03-08T13:38:12;13.20;95.80
7936;DHT22;4013;49.744;8.118;2024-03-08T13:40:41;13.50;90.80
7936;DHT22;4013;49.744;8.118;2024-03-08T13:43:09;13.50;99.90
7936;DHT22;4013;49.744;8.118;2024-03-08T13:45:36;13.60;99.90
7936;DHT22;4013;49.744;8.118;2024-03-08T13:48:05;14.30;99.90
7936;DHT22;4013;49.744;8.118;2024-03-08T13:50:32;14.80;99.90
7936;DHT22;4013;49.744;8.118;2024-03-08T13:53:00;14.60;99.90
7936;DHT22;4013;49.744;8.118;2024-03-08T13:55:27;14.50;99.90
7936;DHT22;4013;49.744;8.118;2024-03-08T13:57:55;14.40;99.90
7936;DHT22;4013;49.744;8.118;2024-03-08T14:00:24;14.70;99.90
7936;DHT22;4013;49.744;8.118;2024-03-08T14:02:53;14.80;99.90
7936;DHT22;4013;49.744;8.118;2024-03-08T14:05:20;14.50;99.90
7936;DHT22;4013;49.744;8.118;2024-03-08T14:07:47;14.20;99.90
7936;DHT22;4013;49.744;8.118;2024-03-08T14:10:14;14.30;99.90
7936;DHT22;4013;49.744;8.118;2024-03-08T14:12:42;14.90;99.90
7936;DHT22;4013;49.744;8.118;2024-03-08T14:15:11;15.00;99.90
7936;DHT22;4013;49.744;8.118;2024-03-08T14:17:38;15.10;99.90
7936;DHT22;4013;49.744;8.118;2024-03-08T14:20:06;15.40;99.90
7936;DHT22;4013;49.744;8.118;2024-03-08T14:22:35;15.60;99.90
7936;DHT22;4013;49.744;8.118;2024-03-08T14:25:02;15.80;99.90
7936;DHT22;4013;49.744;8.118;2024-03-08T14:27:30;15.80;99.90
7936;DHT22;4013;49.744;8.118;2024-03-08T14:29:58;15.50;99.90
7936;DHT22;4013;49.744;8.118;2024-03-08T14:32:27;15.20;99.90
7936;DHT22;4013;49.744;8.118;2024-03-08T14:34:54;15.10;99.90
7936;DHT22;4013;49.744;8.118;2024-03-08T14:37:21;15.20;99.90
7936;DHT22;4013;49.744;8.118;2024-03-08T14:39:53;15.30;99.90
7936;DHT22;4013;49.744;8.118;2024-03-08T14:42:21;15.10;99.90
7936;DHT22;4013;49.744;8.118;2024-03-08T14:44:48;14.20;99.90
7936;DHT22;4013;49.744;8.118;2024-03-08T14:47:17;13.20;99.90
7936;DHT22;4013;49.744;8.118;2024-03-08T14:49:46;12.50;92.20
7936;DHT22;4013;49.744;8.118;2024-03-08T14:52:14;11.80;80.90
7936;DHT22;4013;49.744;8.118;2024-03-08T14:54:53;11.40;80.60
7936;DHT22;4013;49.744;8.118;2024-03-08T14:57:21;11.20;83.10
7936;DHT22;4013;49.744;8.118;2024-03-08T14:59:48;11.10;84.60
7936;DHT22;4013;49.744;8.118;2024-03-08T15:02:15;11.10;86.70
7936;DHT22;4013;49.744;8.118;2024-03-08T15:04:48;11.20;88.90
7936;DHT22;4013;49.744;8.118;2024-03-08T15:07:22;11.40;88.10
7936;DHT22;4013;49.744;8.118;2024-03-08T15:09:49;11.40;87.20
7936;DHT22;4013;49.744;8.118;2024-03-08T15:12:18;11.20;87.00
7936;DHT22;4013;49.744;8.118;2024-03-08T15:14:45;11.20;90.00
7936;DHT22;4013;49.744;8.118;2024-03-08T15:17:12;11.20;89.60
7936;DHT22;4013;49.744;8.118;2024-03-08T15:19:48;11.10;89.60
7936;DHT22;4013;49.744;8.118;2024-03-08T15:22:15;11.10;90.40
7936;DHT22;4013;49.744;8.118;2024-03-08T15:24:43;11.10;91.50
7936;DHT22;4013;49.744;8.118;2024-03-08T15:27:10;11.10;91.90
7936;DHT22;4013;49.744;8.118;2024-03-08T15:29:40;11.10;92.20
7936;DHT22;4013;49.744;8.118;2024-03-08T15:32:09;11.10;93.00
7936;DHT22;4013;49.744;8.118;2024-03-08T15:34:42;10.90;92.60
7936;DHT22;4013;49.744;8.118;2024-03-08T15:37:10;10.80;93.10
7936;DHT22;4013;49.744;8.118;2024-03-08T15:39:42;10.80;93.80
7936;DHT22;4013;49.744;8.118;2024-03-08T15:42:08;10.60;93.90
7936;DHT22;4013;49.744;8.118;2024-03-08T15:44:37;10.60;94.70
7936;DHT22;4013;49.744;8.118;2024-03-08T15:47:04;10.60;94.40
7936;DHT22;4013;49.744;8.118;2024-03-08T15:49:32;10.60;95.50
7936;DHT22;4013;49.744;8.118;2024-03-08T15:51:59;10.60;96.50
7936;DHT22;4013;49.744;8.118;2024-03-08T15:54:28;10.60;96.00
7936;DHT22;4013;49.744;8.118;2024-03-08T15:56:55;10.60;96.80
7936;DHT22;4013;49.744;8.118;2024-03-08T15:59:23;10.60;96.40
7936;DHT22;4013;49.744;8.118;2024-03-08T16:01:52;10.60;97.00
7936;DHT22;4013;49.744;8.118;2024-03-08T16:04:19;10.60;97.20
7936;DHT22;4013;49.744;8.118;2024-03-08T16:06:46;10.50;97.90
7936;DHT22;4013;49.744;8.118;2024-03-08T16:09:13;10.50;98.70
7936;DHT22;4013;49.744;8.118;2024-03-08T16:11:42;10.40;99.80
7936;DHT22;4013;49.744;8.118;2024-03-08T16:14:09;10.40;99.90
7936;DHT22;4013;49.744;8.118;2024-03-08T16:16:37;10.40;99.90
7936;DHT22;4013;49.744;8.118;2024-03-08T16:19:04;10.40;99.90
7936;DHT22;4013;49.744;8.118;2024-03-08T16:21:33;10.40;99.90
7936;DHT22;4013;49.744;8.118;2024-03-08T16:24:01;10.30;99.90
7936;DHT22;4013;49.744;8.118;2024-03-08T16:26:28;10.30;99.90
7936;DHT22;4013;49.744;8.118;2024-03-08T16:29:01;10.30;99.90
7936;DHT22;4013;49.744;8.118;2024-03-08T16:31:29;10.30;99.20
7936;DHT22;4013;49.744;8.118;2024-03-08T16:33:56;10.30;99.10
7936;DHT22;4013;49.744;8.118;2024-03-08T16:36:23;10.20;99.90
7936;DHT22;4013;49.744;8.118;2024-03-08T16:38:52;10.20;99.90
7936;DHT22;4013;49.744;8.118;2024-03-08T16:41:19;10.20;99.90
7936;DHT22;4013;49.744;8.118;2024-03-08T16:43:47;10.10;99.90
7936;DHT22;4013;49.744;8.118;2024-03-08T16:46:16;10.10;99.90
7936;DHT22;4013;49.744;8.118;2024-03-08T16:48:43;10.10;99.90
7936;DHT22;4013;49.744;8.118;2024-03-08T16:51:10;10.00;99.90
7936;DHT22;4013;49.744;8.118;2024-03-08T16:53:37;9.90;99.90
7936;DHT22;4013;49.744;8.118;2024-03-08T16:56:07;9.90;99.90
7936;DHT22;4013;49.744;8.118;2024-03-08T16:58:37;9.80;99.90
7936;DHT22;4013;49.744;8.118;2024-03-08T17:01:07;9.80;99.90
7936;DHT22;4013;49.744;8.118;2024-03-08T17:03:35;9.80;99.90
7936;DHT22;4013;49.744;8.118;2024-03-08T17:06:03;9.70;99.90
7936;DHT22;4013;49.744;8.118;2024-03-08T17:08:31;9.70;99.90
7936;DHT22;4013;49.744;8.118;2024-03-08T17:11:01;9.60;99.90
7936;DHT22;4013;49.744;8.118;2024-03-08T17:13:28;9.60;99.90
7936;DHT22;4013;49.744;8.118;2024-03-08T17:15:55;9.50;99.90
7936;DHT22;4013;49.744;8.118;2024-03-08T17:18:22;9.40;99.90
7936;DHT22;4013;49.744;8.118;2024-03-08T17:20:50;9.40;99.90
7936;DHT22;4013;49.744;8.118;2024-03-08T17:23:17;9.30;99.90
7936;DHT22;4013;49.744;8.118;2024-03-08T17:25:45;9.30;99.90
7936;DHT22;4013;49.744;8.118;2024-03-08T17:28:13;9.30;99.90
7936;DHT22;4013;49.744;8.118;2024-03-08T17:30:40;9.20;99.90
7936;DHT22;4013;49.744;8.118;2024-03-08T17:33:09;9.10;99.90
7936;DHT22;4013;49.744;8.118;2024-03-08T17:35:39;9.10;99.90
7936;DHT22;4013;49.744;8.118;2024-03-08T17:38:08;9.10;99.90
7936;DHT22;4013;49.744;8.118;2024-03-08T17:40:36;9.10;99.90
7936;DHT22;4013;49.744;8.118;2024-03-08T17:43:05;9.10;99.90
7936;DHT22;4013;49.744;8.118;2024-03-08T17:45:37;9.00;99.90
7936;DHT22;4013;49.744;8.118;2024-03-08T17:48:06;8.90;99.90
7936;DHT22;4013;49.744;8.118;2024-03-08T17:50:38;8.80;99.90
7936;DHT22;4013;49.744;8.118;2024-03-08T17:53:05;8.70;99.90
7936;DHT22;4013;49.744;8.118;2024-03-08T17:55:34;8.60;99.90
7936;DHT22;4013;49.744;8.118;2024-03-08T17:58:03;8.50;99.90
7936;DHT22;4013;49.744;8.118;2024-03-08T18:00:31;8.40;99.90
7936;DHT22;4013;49.744;8.118;2024-03-08T18:03:01;8.30;99.90
7936;DHT22;4013;49.744;8.118;2024-03-08T18:05:31;8.30;99.90
7936;DHT22;4013;49.744;8.118;2024-03-08T18:08:02;8.30;99.90
7936;DHT22;4013;49.744;8.118;2024-03-08T18:10:30;8.20;99.90
7936;DHT22;4013;49.744;8.118;2024-03-08T18:13:02;8.20;99.90
7936;DHT22;4013;49.744;8.118;2024-03-08T18:15:37;8.10;99.90
7936;DHT22;4013;49.744;8.118;2024-03-08T18:18:05;8.10;99.90
7936;DHT22;4013;49.744;8.118;2024-03-08T18:20:34;8.00;99.90
7936;DHT22;4013;49.744;8.118;2024-03-08T18:23:09;7.90;99.90
7936;DHT22;4013;49.744;8.118;2024-03-08T18:25:37;7.90;99.90
7936;DHT22;4013;49.744;8.118;2024-03-08T18:28:06;7.80;99.90
7936;DHT22;4013;49.744;8.118;2024-03-08T18:30:34;7.80;99.90
7936;DHT22;4013;49.744;8.118;2024-03-08T18:33:02;7.70;99.90
7936;DHT22;4013;49.744;8.118;2024-03-08T18:35:29;7.60;99.90
7936;DHT22;4013;49.744;8.118;2024-03-08T18:37:56;7.50;99.90
7936;DHT22;4013;49.744;8.118;2024-03-08T18:40:24;7.40;99.90
7936;DHT22;4013;49.744;8.118;2024-03-08T18:42:52;7.30;99.90
7936;DHT22;4013;49.744;8.118;2024-03-08T18:45:23;7.30;99.90
7936;DHT22;4013;49.744;8.118;2024-03-08T18:47:52;7.30;99.90
7936;DHT22;4013;49.744;8.118;2024-03-08T18:50:23;7.20;99.90
7936;DHT22;4013;49.744;8.118;2024-03-08T18:52:51;7.20;99.90
7936;DHT22;4013;49.744;8.118;2024-03-08T18:55:19;7.20;99.90
7936;DHT22;4013;49.744;8.118;2024-03-08T18:57:50;7.20;99.90
7936;DHT22;4013;49.744;8.118;2024-03-08T19:00:18;7.20;99.90
7936;DHT22;4013;49.744;8.118;2024-03-08T19:02:50;7.10;99.90
7936;DHT22;4013;49.744;8.118;2024-03-08T19:05:18;7.10;99.90
7936;DHT22;4013;49.744;8.118;2024-03-08T19:07:47;7.10;99.90
7936;DHT22;4013;49.744;8.118;2024-03-08T19:10:15;7.10;99.90
7936;DHT22;4013;49.744;8.118;2024-03-08T19:12:45;7.10;99.90
7936;DHT22;4013;49.744;8.118;2024-03-08T19:15:13;7.10;99.90
7936;DHT22;4013;49.744;8.118;2024-03-08T19:17:41;7.10;99.90
7936;DHT22;4013;49.744;8.118;2024-03-08T19:20:10;7.10;99.90
7936;DHT22;4013;49.744;8.118;2024-03-08T19:22:42;7.00;99.90
7936;DHT22;4013;49.744;8.118;2024-03-08T19:25:09;6.90;99.90
7936;DHT22;4013;49.744;8.118;2024-03-08T19:27:36;6.80;99.90
7936;DHT22;4013;49.744;8.118;2024-03-08T19:30:05;6.80;99.90
7936;DHT22;4013;49.744;8.118;2024-03-08T19:32:32;6.70;99.90
7936;DHT22;4013;49.744;8.118;2024-03-08T19:35:00;6.60;99.90
7936;DHT22;4013;49.744;8.118;2024-03-08T19:37:36;6.60;99.90
7936;DHT22;4013;49.744;8.118;2024-03-08T19:40:07;6.60;99.90
7936;DHT22;4013;49.744;8.118;2024-03-08T19:42:40;6.60;99.90
7936;DHT22;4013;49.744;8.118;2024-03-08T19:45:08;6.50;99.90
7936;DHT22;4013;49.744;8.118;2024-03-08T19:47:36;6.40;99.90
7936;DHT22;4013;49.744;8.118;2024-03-08T19:50:03;6.30;99.90
7936;DHT22;4013;49.744;8.118;2024-03-08T19:52:33;6.30;99.90
7936;DHT22;4013;49.744;8.118;2024-03-08T19:55:04;6.20;99.90
7936;DHT22;4013;49.744;8.118;2024-03-08T19:57:31;6.20;99.90
7936;DHT22;4013;49.744;8.118;2024-03-08T19:59:57;6.10;99.90
7936;DHT22;4013;49.744;8.118;2024-03-08T20:02:24;6.00;99.90
7936;DHT22;4013;49.744;8.118;2024-03-08T20:04:52;6.00;99.90
7936;DHT22;4013;49.744;8.118;2024-03-08T20:07:18;5.90;99.90
7936;DHT22;4013;49.744;8.118;2024-03-08T20:09:45;5.90;99.90
7936;DHT22;4013;49.744;8.118;2024-03-08T20:12:13;6.00;99.90
7936;DHT22;4013;49.744;8.118;2024-03-08T20:14:42;6.10;99.90
7936;DHT22;4013;49.744;8.118;2024-03-08T20:17:08;6.00;99.90
7936;DHT22;4013;49.744;8.118;2024-03-08T20:19:35;6.00;99.90
7936;DHT22;4013;49.744;8.118;2024-03-08T20:22:04;6.00;99.90
7936;DHT22;4013;49.744;8.118;2024-03-08T20:24:31;6.00;99.90
7936;DHT22;4013;49.744;8.118;2024-03-08T20:26:58;6.00;99.90
7936;DHT22;4013;49.744;8.118;2024-03-08T20:29:28;5.90;99.90
7936;DHT22;4013;49.744;8.118;2024-03-08T20:31:57;5.80;99.90
7936;DHT22;4013;49.744;8.118;2024-03-08T20:34:24;5.70;99.90
7936;DHT22;4013;49.744;8.118;2024-03-08T20:36:52;5.70;99.90
7936;DHT22;4013;49.744;8.118;2024-03-08T20:39:19;5.80;99.90
7936;DHT22;4013;49.744;8.118;2024-03-08T20:41:47;5.80;99.90
7936;DHT22;4013;49.744;8.118;2024-03-08T20:44:14;5.70;99.90
7936;DHT22;4013;49.744;8.118;2024-03-08T20:46:42;5.70;99.90
7936;DHT22;4013;49.744;8.118;2024-03-08T20:49:09;5.70;99.90
7936;DHT22;4013;49.744;8.118;2024-03-08T20:51:38;5.60;99.90
7936;DHT22;4013;49.744;8.118;2024-03-08T20:54:06;5.60;99.90
7936;DHT22;4013;49.744;8.118;2024-03-08T20:56:33;5.60;99.90
7936;DHT22;4013;49.744;8.118;2024-03-08T20:59:00;5.50;99.90
7936;DHT22;4013;49.744;8.118;2024-03-08T21:01:27;5.50;99.90
7936;DHT22;4013;49.744;8.118;2024-03-08T21:03:58;5.50;99.90
7936;DHT22;4013;49.744;8.118;2024-03-08T21:06:25;5.50;99.90
7936;DHT22;4013;49.744;8.118;2024-03-08T21:08:52;5.40;99.90
7936;DHT22;4013;49.744;8.118;2024-03-08T21:11:19;5.50;99.90
7936;DHT22;4013;49.744;8.118;2024-03-08T21:13:46;5.50;99.90
7936;DHT22;4013;49.744;8.118;2024-03-08T21:16:14;5.50;99.90
7936;DHT22;4013;49.744;8.118;2024-03-08T21:18:42;5.40;99.90
7936;DHT22;4013;49.744;8.118;2024-03-08T21:21:11;5.30;99.90
7936;DHT22;4013;49.744;8.118;2024-03-08T21:23:38;5.30;99.90
7936;DHT22;4013;49.744;8.118;2024-03-08T21:26:06;5.40;99.90
7936;DHT22;4013;49.744;8.118;2024-03-08T21:28:37;5.50;99.90
7936;DHT22;4013;49.744;8.118;2024-03-08T21:31:04;5.50;99.90
7936;DHT22;4013;49.744;8.118;2024-03-08T21:33:31;5.50;99.90
7936;DHT22;4013;49.744;8.118;2024-03-08T21:35:59;5.40;99.90
7936;DHT22;4013;49.744;8.118;2024-03-08T21:38:29;5.30;99.90
7936;DHT22;4013;49.744;8.118;2024-03-08T21:40:56;5.30;99.90
7936;DHT22;4013;49.744;8.118;2024-03-08T21:43:26;5.30;99.90
7936;DHT22;4013;49.744;8.118;2024-03-08T21:45:53;5.20;99.90
7936;DHT22;4013;49.744;8.118;2024-03-08T21:48:21;5.20;99.90
7936;DHT22;4013;49.744;8.118;2024-03-08T21:50:48;5.10;99.90
7936;DHT22;4013;49.744;8.118;2024-03-08T21:53:15;5.00;99.90
7936;DHT22;4013;49.744;8.118;2024-03-08T21:55:44;5.00;99.90